Time;durP1;ratioP1;P1;durP2;ratioP2;P2;SDS_P1;SDS_P2;PMS_P1;PMS_P2;Temp;Humidity;BMP_temperature;BMP_pressure;BME280_temperature;BME280_humidity;BME280_pressure;Samples;Min_cycle;Max_cycle;Signal;HPM_P1;HPM_P2
2023/08/08 00:00:13;;;;;;;3.00;2.80;;;20.50;92.20;;;;;;4974056;28;20699;-74
2023/08/08 00:02:39;;;;;;;2.43;2.23;;;20.50;92.10;;;;;;4973316;28;20431;-74
2023/08/08 00:05:06;;;;;;;3.23;2.80;;;20.50;92.20;;;;;;4991459;28;20501;-74
2023/08/08 00:07:35;;;;;;;3.07;2.77;;;20.50;92.10;;;;;;4992393;28;20540;-74
2023/08/08 00:10:01;;;;;;;2.50;2.30;;;20.50;92.20;;;;;;4982527;28;20535;-74
2023/08/08 00:12:27;;;;;;;2.70;2.50;;;20.50;92.10;;;;;;4976456;28;20456;-74
2023/08/08 00:14:53;;;;;;;2.90;2.70;;;20.50;92.10;;;;;;5004357;28;20425;-74
2023/08/08 00:17:24;;;;;;;2.67;2.47;;;20.50;92.10;;;;;;5029404;28;20544;-72
2023/08/08 00:19:50;;;;;;;2.80;2.60;;;20.50;92.10;;;;;;4985501;28;20437;-74
2023/08/08 00:22:16;;;;;;;3.10;2.57;;;20.50;92.10;;;;;;4982722;28;20519;-74
2023/08/08 00:24:42;;;;;;;2.70;2.50;;;20.40;92.10;;;;;;4993692;28;20517;-74
2023/08/08 00:27:08;;;;;;;2.97;2.60;;;20.50;92.10;;;;;;4975508;28;20465;-74
2023/08/08 00:29:35;;;;;;;2.90;2.70;;;20.50;92.10;;;;;;4974900;28;20558;-74
2023/08/08 00:32:01;;;;;;;2.73;2.53;;;20.50;92.10;;;;;;4975592;28;20479;-74
2023/08/08 00:34:30;;;;;;;2.57;2.37;;;20.40;92.10;;;;;;4992049;28;20437;-73
2023/08/08 00:36:58;;;;;;;2.70;2.50;;;20.40;92.10;;;;;;4972826;28;20408;-74
2023/08/08 00:39:26;;;;;;;3.10;2.80;;;20.40;92.10;;;;;;4961077;28;20436;-74
2023/08/08 00:41:55;;;;;;;2.50;2.33;;;20.40;92.00;;;;;;4972464;28;20451;-74
2023/08/08 00:44:21;;;;;;;2.80;2.60;;;20.40;91.90;;;;;;4988649;28;20428;-74
2023/08/08 00:46:49;;;;;;;2.80;2.47;;;20.40;91.90;;;;;;5005048;28;20424;-74
2023/08/08 00:49:15;;;;;;;3.90;2.73;;;20.40;91.90;;;;;;4995361;28;20194;-74
2023/08/08 00:51:42;;;;;;;2.90;2.70;;;20.40;91.90;;;;;;5008141;28;20448;-74
2023/08/08 00:54:11;;;;;;;2.63;2.43;;;20.40;91.90;;;;;;4977616;28;20226;-74
2023/08/08 00:56:41;;;;;;;2.60;2.40;;;20.40;91.90;;;;;;4988954;28;20432;-74
2023/08/08 00:59:12;;;;;;;3.30;3.10;;;20.30;91.80;;;;;;4994717;28;20406;-74
2023/08/08 01:01:40;;;;;;;2.97;2.77;;;20.30;91.90;;;;;;4982975;28;20563;-74
2023/08/08 01:04:09;;;;;;;2.87;2.67;;;20.30;91.90;;;;;;4975416;28;20487;-73
2023/08/08 01:06:48;;;;;;;3.37;2.60;;;20.30;91.80;;;;;;4991661;28;21293;-74
2023/08/08 01:09:35;;;;;;;3.10;2.90;;;20.30;91.90;;;;;;4992253;28;20497;-74
2023/08/08 01:12:03;;;;;;;2.83;2.57;;;20.30;92.00;;;;;;4975304;28;20449;-74
2023/08/08 01:14:34;;;;;;;2.67;2.47;;;20.30;91.90;;;;;;4991206;28;20420;-74
2023/08/08 01:17:05;;;;;;;2.90;2.70;;;20.20;91.80;;;;;;5009341;28;20412;-74
2023/08/08 01:19:32;;;;;;;3.03;2.83;;;20.20;91.90;;;;;;4975712;28;20414;-74
2023/08/08 01:22:05;;;;;;;2.90;2.70;;;20.20;92.20;;;;;;4991686;28;20466;-74
2023/08/08 01:24:36;;;;;;;2.90;2.70;;;20.30;92.00;;;;;;4972293;28;21233;-74
2023/08/08 01:27:04;;;;;;;3.20;3.00;;;20.20;91.90;;;;;;4978551;28;20506;-73
2023/08/08 01:29:30;;;;;;;2.73;2.53;;;20.20;91.90;;;;;;4972157;28;21114;-74
2023/08/08 01:31:58;;;;;;;2.77;2.57;;;20.20;91.90;;;;;;4959458;28;20448;-74
2023/08/08 01:34:24;;;;;;;3.10;2.80;;;20.20;91.90;;;;;;5022920;28;20417;-74
2023/08/08 01:36:53;;;;;;;4.80;3.00;;;20.20;91.90;;;;;;5010886;28;20832;-74
2023/08/08 01:39:26;;;;;;;2.83;2.63;;;20.20;91.90;;;;;;4998377;28;20425;-73
2023/08/08 01:41:55;;;;;;;3.07;2.87;;;20.20;91.90;;;;;;4958782;28;20532;-73
2023/08/08 01:44:25;;;;;;;2.87;2.67;;;20.20;91.90;;;;;;4991315;28;20421;-74
2023/08/08 01:46:54;;;;;;;2.90;2.70;;;20.20;91.90;;;;;;4967201;28;20422;-74
2023/08/08 01:49:24;;;;;;;3.10;2.80;;;20.20;92.00;;;;;;4987122;28;20520;-74
2023/08/08 01:51:52;;;;;;;2.93;2.43;;;20.10;91.90;;;;;;4999455;28;20456;-73
2023/08/08 01:54:21;;;;;;;5.67;2.77;;;20.10;91.90;;;;;;4989137;28;20512;-74
2023/08/08 01:56:49;;;;;;;2.80;2.60;;;20.20;92.00;;;;;;4991361;28;20407;-74
2023/08/08 01:59:18;;;;;;;3.30;3.00;;;20.10;91.90;;;;;;4992724;28;20405;-74
2023/08/08 02:01:44;;;;;;;3.07;2.77;;;20.10;91.90;;;;;;4978872;28;20980;-74
2023/08/08 02:04:10;;;;;;;2.93;2.73;;;20.10;91.90;;;;;;4978117;28;20505;-74
2023/08/08 02:06:37;;;;;;;3.37;3.10;;;20.10;91.90;;;;;;4984717;28;20459;-74
2023/08/08 02:09:04;;;;;;;2.97;2.77;;;20.10;91.90;;;;;;4975233;28;20820;-74
2023/08/08 02:11:32;;;;;;;2.60;2.50;;;20.10;91.80;;;;;;4994372;28;20454;-74
2023/08/08 02:13:58;;;;;;;3.00;2.70;;;20.10;91.80;;;;;;4981735;28;20424;-74
2023/08/08 02:16:26;;;;;;;3.20;3.00;;;20.10;91.80;;;;;;5000572;28;20535;-74
2023/08/08 02:18:55;;;;;;;4.40;2.93;;;20.10;91.80;;;;;;4977939;28;20430;-72
2023/08/08 02:21:26;;;;;;;3.70;3.40;;;20.00;91.80;;;;;;5003473;28;20468;-74
2023/08/08 02:23:52;;;;;;;2.80;2.60;;;20.00;91.80;;;;;;4978192;28;20459;-74
2023/08/08 02:26:19;;;;;;;2.90;2.60;;;20.00;91.70;;;;;;4974905;28;20948;-74
2023/08/08 02:28:48;;;;;;;3.50;3.30;;;20.00;91.70;;;;;;4975409;28;20473;-74
2023/08/08 02:31:20;;;;;;;3.30;3.00;;;20.00;91.80;;;;;;4968515;28;20815;-74
2023/08/08 02:33:52;;;;;;;3.07;2.87;;;20.00;91.70;;;;;;5014072;28;20407;-74
2023/08/08 02:36:23;;;;;;;4.67;2.70;;;20.00;91.70;;;;;;4999590;28;20438;-74
2023/08/08 02:38:53;;;;;;;3.43;3.07;;;20.00;91.70;;;;;;4989033;28;20428;-74
2023/08/08 02:41:24;;;;;;;2.87;2.67;;;20.00;91.70;;;;;;4978040;28;20798;-74
2023/08/08 02:43:52;;;;;;;3.80;2.90;;;20.00;91.70;;;;;;4994521;28;20439;-74
2023/08/08 02:46:19;;;;;;;3.77;3.37;;;20.00;91.80;;;;;;4993715;28;20424;-74
2023/08/08 02:48:45;;;;;;;3.50;3.30;;;20.00;91.70;;;;;;4977386;28;20500;-74
2023/08/08 02:51:11;;;;;;;2.83;2.63;;;20.00;91.70;;;;;;4977561;28;20455;-74
2023/08/08 02:53:37;;;;;;;3.10;2.90;;;19.90;91.70;;;;;;4993932;28;20440;-73
2023/08/08 02:56:04;;;;;;;3.30;3.00;;;19.90;91.60;;;;;;4993100;28;20436;-74
2023/08/08 02:58:39;;;;;;;3.47;3.17;;;19.90;91.60;;;;;;4987442;28;20435;-74
2023/08/08 03:01:05;;;;;;;3.90;2.90;;;19.90;91.60;;;;;;5011075;28;20533;-74
2023/08/08 03:03:33;;;;;;;5.10;3.37;;;19.90;91.60;;;;;;4986808;28;20481;-74
2023/08/08 03:06:05;;;;;;;3.67;3.27;;;19.90;91.60;;;;;;4998019;28;20408;-74
2023/08/08 03:08:31;;;;;;;3.23;3.03;;;19.90;91.60;;;;;;4992810;28;20472;-74
2023/08/08 03:11:02;;;;;;;3.70;3.40;;;19.90;91.60;;;;;;4993450;28;20445;-73
2023/08/08 03:13:33;;;;;;;4.47;3.40;;;19.90;91.60;;;;;;4993703;28;20459;-73
2023/08/08 03:16:02;;;;;;;3.37;3.07;;;19.90;91.60;;;;;;4993446;28;20420;-74
2023/08/08 03:18:28;;;;;;;4.83;3.20;;;19.80;91.60;;;;;;4993821;28;20818;-74
2023/08/08 03:20:59;;;;;;;3.17;2.90;;;19.80;91.60;;;;;;4993362;28;20446;-74
2023/08/08 03:23:28;;;;;;;3.27;2.97;;;19.80;91.60;;;;;;4993159;28;20432;-74
2023/08/08 03:25:56;;;;;;;3.07;2.87;;;19.80;91.60;;;;;;4989788;28;20422;-74
2023/08/08 03:28:27;;;;;;;7.13;3.50;;;19.80;91.60;;;;;;4978555;28;20555;-74
2023/08/08 03:30:57;;;;;;;4.47;3.03;;;19.80;91.70;;;;;;4976058;28;20450;-74
2023/08/08 03:33:27;;;;;;;5.03;3.70;;;19.80;91.70;;;;;;4974089;28;20465;-75
2023/08/08 03:35:57;;;;;;;3.50;3.20;;;19.80;91.70;;;;;;4988254;28;20963;-75
2023/08/08 03:38:23;;;;;;;3.53;3.23;;;19.80;91.70;;;;;;5003686;28;20444;-75
2023/08/08 03:40:56;;;;;;;5.63;3.27;;;19.80;91.70;;;;;;4994227;28;20860;-75
2023/08/08 03:43:25;;;;;;;3.67;3.37;;;19.80;91.80;;;;;;4978571;28;20474;-76
2023/08/08 03:45:53;;;;;;;7.77;3.83;;;19.70;91.80;;;;;;4990597;28;20434;-75
2023/08/08 03:48:21;;;;;;;3.43;3.23;;;19.70;91.80;;;;;;4974799;28;20807;-74
2023/08/08 03:50:47;;;;;;;3.43;3.13;;;19.70;91.80;;;;;;5009516;28;20447;-74
2023/08/08 03:53:13;;;;;;;3.77;3.37;;;19.70;91.80;;;;;;5009752;28;20889;-74
2023/08/08 03:55:42;;;;;;;3.87;3.50;;;19.70;91.90;;;;;;4975710;28;20463;-74
2023/08/08 03:58:10;;;;;;;3.77;3.40;;;19.70;91.90;;;;;;4991692;28;20431;-74
2023/08/08 04:00:39;;;;;;;3.63;3.33;;;19.70;91.90;;;;;;4991842;28;20455;-74
2023/08/08 04:03:07;;;;;;;3.70;3.23;;;19.70;91.90;;;;;;4991956;28;20543;-74
2023/08/08 04:05:33;;;;;;;4.03;3.40;;;19.70;91.90;;;;;;4974459;28;20445;-74
2023/08/08 04:07:59;;;;;;;4.77;3.40;;;19.70;91.90;;;;;;4975520;28;21014;-74
2023/08/08 04:10:26;;;;;;;4.07;3.27;;;19.70;91.90;;;;;;5001811;28;20217;-73
2023/08/08 04:12:57;;;;;;;4.97;3.77;;;19.70;92.00;;;;;;4993874;28;20436;-74
2023/08/08 04:15:23;;;;;;;4.53;4.10;;;19.70;92.00;;;;;;4984167;28;20438;-74
2023/08/08 04:17:49;;;;;;;6.53;3.20;;;19.60;91.90;;;;;;4983131;28;20444;-74
2023/08/08 04:20:15;;;;;;;4.30;3.80;;;19.60;91.90;;;;;;5008521;28;20451;-74
2023/08/08 04:22:41;;;;;;;4.70;3.70;;;19.60;92.00;;;;;;4988342;28;20459;-74
2023/08/08 04:25:10;;;;;;;5.10;3.57;;;19.60;92.00;;;;;;4966732;28;20462;-74
2023/08/08 04:27:36;;;;;;;4.87;3.70;;;19.60;92.00;;;;;;4977162;28;20834;-74
2023/08/08 04:30:03;;;;;;;3.73;3.30;;;19.60;92.00;;;;;;4967946;28;20894;-74
2023/08/08 04:32:29;;;;;;;5.03;3.80;;;19.60;92.00;;;;;;4972353;28;20439;-74
2023/08/08 04:34:58;;;;;;;5.30;3.33;;;19.60;92.00;;;;;;4978769;28;20445;-74
2023/08/08 04:37:24;;;;;;;3.40;3.20;;;19.60;92.10;;;;;;4990047;28;20448;-72
2023/08/08 04:39:50;;;;;;;3.90;3.00;;;19.60;92.10;;;;;;4994346;28;20429;-73
2023/08/08 04:42:21;;;;;;;5.10;3.60;;;19.60;92.10;;;;;;4986481;28;20934;-73
2023/08/08 04:44:48;;;;;;;3.80;3.40;;;19.60;92.10;;;;;;4967954;28;20505;-73
2023/08/08 04:47:14;;;;;;;3.77;3.47;;;19.60;92.20;;;;;;4971631;28;20926;-73
2023/08/08 04:49:43;;;;;;;4.70;3.47;;;19.60;92.20;;;;;;5002650;28;20918;-74
2023/08/08 04:52:11;;;;;;;3.47;3.27;;;19.60;92.20;;;;;;4982923;28;20529;-73
2023/08/08 04:54:37;;;;;;;3.87;3.40;;;19.60;92.60;;;;;;5016239;28;20937;-73
2023/08/08 04:57:06;;;;;;;3.70;3.40;;;19.60;92.30;;;;;;5008470;28;20281;-72
2023/08/08 04:59:32;;;;;;;5.27;3.80;;;19.50;92.20;;;;;;5005493;28;20443;-74
2023/08/08 05:02:01;;;;;;;3.50;3.20;;;19.50;92.30;;;;;;5000289;23;20564;-72
2023/08/08 05:04:30;;;;;;;4.63;3.80;;;19.60;92.30;;;;;;4992585;28;20445;-72
2023/08/08 05:06:57;;;;;;;3.83;3.53;;;19.50;92.30;;;;;;4985820;28;20495;-72
2023/08/08 05:09:28;;;;;;;4.10;3.70;;;19.50;92.40;;;;;;4965744;28;20521;-72
2023/08/08 05:11:58;;;;;;;5.33;3.33;;;19.50;92.40;;;;;;5005682;28;20440;-73
2023/08/08 05:14:26;;;;;;;4.37;4.00;;;19.50;92.40;;;;;;5000434;28;20933;-72
2023/08/08 05:16:57;;;;;;;4.10;3.70;;;19.50;92.40;;;;;;4984778;28;21008;-71
2023/08/08 05:19:25;;;;;;;4.37;3.50;;;19.50;92.40;;;;;;5004134;28;20479;-71
2023/08/08 05:21:53;;;;;;;6.67;3.70;;;19.50;92.50;;;;;;4999705;28;20447;-72
2023/08/08 05:24:19;;;;;;;5.23;3.70;;;19.50;92.50;;;;;;4985227;28;20429;-72
2023/08/08 05:26:47;;;;;;;4.60;3.90;;;19.50;92.50;;;;;;5048258;22;20992;-72
2023/08/08 05:29:16;;;;;;;3.97;3.57;;;19.50;92.50;;;;;;4985590;28;20437;-71
2023/08/08 05:31:44;;;;;;;4.77;3.70;;;19.50;92.60;;;;;;4971442;28;20458;-71
2023/08/08 05:34:10;;;;;;;4.33;3.60;;;19.50;92.60;;;;;;4954412;28;20431;-73
2023/08/08 05:36:36;;;;;;;5.03;3.70;;;19.50;92.60;;;;;;4965855;28;20505;-72
2023/08/08 05:39:02;;;;;;;4.33;3.50;;;19.40;92.60;;;;;;4972587;28;20278;-72
2023/08/08 05:41:30;;;;;;;3.90;3.50;;;19.50;92.70;;;;;;4984266;28;20243;-73
2023/08/08 05:43:59;;;;;;;5.73;3.90;;;19.50;92.80;;;;;;4952523;28;20463;-72
2023/08/08 05:46:25;;;;;;;6.37;3.43;;;19.40;92.80;;;;;;4937042;28;20502;-73
2023/08/08 05:48:51;;;;;;;5.50;3.50;;;19.40;92.80;;;;;;4953054;28;20895;-73
2023/08/08 05:51:19;;;;;;;8.67;4.27;;;19.40;92.80;;;;;;4954285;28;20445;-72
2023/08/08 05:53:45;;;;;;;4.70;4.20;;;19.40;92.90;;;;;;4970054;28;20450;-73
2023/08/08 05:56:11;;;;;;;4.60;4.20;;;19.40;92.90;;;;;;4964266;28;20442;-73
2023/08/08 05:58:37;;;;;;;7.10;4.10;;;19.40;92.90;;;;;;4957556;28;20188;-72
2023/08/08 06:01:09;;;;;;;4.60;4.20;;;19.40;92.90;;;;;;4986094;28;20741;-72
2023/08/08 06:03:37;;;;;;;6.50;4.27;;;19.40;93.00;;;;;;4971558;28;20442;-73
2023/08/08 06:06:05;;;;;;;4.67;4.27;;;19.40;93.00;;;;;;4971703;28;20816;-73
2023/08/08 06:08:31;;;;;;;6.23;4.13;;;19.40;93.00;;;;;;4957860;28;20478;-73
2023/08/08 06:10:58;;;;;;;5.30;3.87;;;19.40;93.00;;;;;;4969936;28;20518;-72
2023/08/08 06:13:24;;;;;;;5.53;4.17;;;19.40;93.10;;;;;;4970820;28;20482;-72
2023/08/08 06:15:52;;;;;;;5.40;4.97;;;19.40;93.10;;;;;;4971293;28;20413;-73
2023/08/08 06:18:21;;;;;;;6.10;4.67;;;19.40;93.10;;;;;;4955035;28;20191;-70
2023/08/08 06:20:47;;;;;;;6.00;4.60;;;19.40;93.10;;;;;;4938198;28;20527;-72
2023/08/08 06:23:13;;;;;;;5.13;4.30;;;19.40;93.20;;;;;;4954103;28;21032;-72
2023/08/08 06:25:39;;;;;;;6.90;4.83;;;19.40;93.20;;;;;;4939369;28;20465;-73
2023/08/08 06:28:06;;;;;;;6.47;4.60;;;19.40;93.20;;;;;;4966751;28;21387;-73
2023/08/08 06:30:32;;;;;;;5.27;4.20;;;19.30;93.20;;;;;;4972929;28;20555;-73
2023/08/08 06:32:58;;;;;;;8.20;4.40;;;19.30;93.20;;;;;;4990066;28;20522;-74
2023/08/08 06:35:27;;;;;;;5.80;5.00;;;19.30;93.20;;;;;;4973415;28;20202;-74
2023/08/08 06:37:57;;;;;;;6.37;4.90;;;19.30;93.20;;;;;;4972943;28;20432;-74
2023/08/08 06:40:27;;;;;;;6.40;5.13;;;19.30;93.20;;;;;;4973369;28;20460;-73
2023/08/08 06:42:55;;;;;;;7.13;5.77;;;19.30;93.20;;;;;;4972845;28;20534;-73
2023/08/08 06:45:24;;;;;;;7.77;5.30;;;19.30;93.30;;;;;;4989578;28;20448;-73
2023/08/08 06:47:51;;;;;;;5.87;4.97;;;19.30;93.30;;;;;;4972364;28;21020;-73
2023/08/08 06:50:21;;;;;;;8.60;4.73;;;19.30;93.40;;;;;;4972324;28;20499;-73
2023/08/08 06:52:50;;;;;;;6.47;5.07;;;19.30;93.40;;;;;;4972140;28;20448;-74
2023/08/08 06:55:16;;;;;;;7.50;5.50;;;19.30;93.40;;;;;;4971930;28;20398;-73
2023/08/08 06:57:42;;;;;;;7.97;5.70;;;19.30;93.40;;;;;;4972076;28;20475;-73
2023/08/08 07:00:11;;;;;;;4.97;4.57;;;19.30;93.40;;;;;;4972109;28;21004;-73
2023/08/08 07:02:38;;;;;;;5.37;4.40;;;19.30;93.40;;;;;;4972121;28;20461;-73
2023/08/08 07:05:04;;;;;;;5.43;4.80;;;19.30;93.40;;;;;;4971821;28;20546;-73
2023/08/08 07:07:35;;;;;;;5.63;4.40;;;19.30;93.40;;;;;;4988280;28;20507;-73
2023/08/08 07:10:07;;;;;;;6.77;6.07;;;19.30;93.40;;;;;;4972437;28;20553;-74
2023/08/08 07:12:35;;;;;;;5.13;4.63;;;19.30;93.50;;;;;;4956306;28;21003;-73
2023/08/08 07:15:03;;;;;;;7.93;5.60;;;19.30;93.50;;;;;;4955725;28;20425;-73
2023/08/08 07:17:29;;;;;;;7.10;5.30;;;19.30;93.50;;;;;;4971838;28;20500;-73
2023/08/08 07:19:56;;;;;;;8.87;5.00;;;19.30;93.50;;;;;;4989131;28;20959;-73
2023/08/08 07:22:22;;;;;;;7.97;5.67;;;19.30;93.50;;;;;;4971637;28;20839;-72
2023/08/08 07:24:50;;;;;;;5.77;5.27;;;19.30;93.50;;;;;;4987778;28;20731;-74
2023/08/08 07:27:16;;;;;;;6.93;5.37;;;19.30;93.60;;;;;;4971495;28;20466;-73
2023/08/08 07:29:45;;;;;;;6.00;4.73;;;19.30;93.60;;;;;;4971460;28;20445;-73
2023/08/08 07:32:11;;;;;;;5.23;4.77;;;19.30;93.60;;;;;;4971307;28;20492;-73
2023/08/08 07:34:37;;;;;;;7.53;5.50;;;19.30;93.60;;;;;;4955422;28;20472;-73
2023/08/08 07:37:05;;;;;;;7.20;5.87;;;19.30;93.70;;;;;;4989142;28;20437;-74
2023/08/08 07:39:35;;;;;;;7.20;5.33;;;19.30;93.70;;;;;;4988823;28;20412;-73
2023/08/08 07:42:01;;;;;;;6.50;5.90;;;19.30;93.70;;;;;;4971485;28;20973;-73
2023/08/08 07:44:31;;;;;;;7.60;5.37;;;19.30;93.70;;;;;;4971186;28;20414;-73
2023/08/08 07:47:00;;;;;;;5.23;4.63;;;19.30;93.80;;;;;;4989202;28;20406;-73
2023/08/08 07:49:25;;;;;;;6.37;4.70;;;19.30;93.80;;;;;;4987611;28;20411;-73
2023/08/08 07:51:54;;;;;;;6.00;5.50;;;19.30;93.80;;;;;;4971791;28;20496;-73
2023/08/08 07:54:20;;;;;;;7.30;4.90;;;19.30;93.80;;;;;;4955403;28;20454;-73
2023/08/08 07:56:46;;;;;;;5.43;4.90;;;19.30;93.80;;;;;;4954254;28;20430;-73
2023/08/08 07:59:12;;;;;;;6.50;4.93;;;19.30;93.90;;;;;;4971210;28;20463;-74
2023/08/08 08:01:41;;;;;;;6.90;5.40;;;19.30;93.90;;;;;;4970855;28;20450;-72
2023/08/08 08:04:07;;;;;;;5.63;4.97;;;19.30;93.90;;;;;;4971120;28;20472;-73
2023/08/08 08:06:33;;;;;;;9.23;5.10;;;19.30;93.90;;;;;;4971643;28;21001;-74
2023/08/08 08:08:59;;;;;;;7.20;4.90;;;19.30;93.90;;;;;;4972026;28;20561;-73
2023/08/08 08:11:28;;;;;;;7.30;4.90;;;19.30;93.90;;;;;;4971090;28;20984;-73
2023/08/08 08:13:56;;;;;;;6.80;5.10;;;19.30;93.90;;;;;;4971300;28;20444;-73
2023/08/08 08:16:22;;;;;;;5.83;5.17;;;19.30;93.90;;;;;;4971782;28;20453;-73
2023/08/08 08:18:50;;;;;;;6.67;4.70;;;19.30;93.90;;;;;;4955376;28;20937;-73
2023/08/08 08:21:17;;;;;;;8.97;4.90;;;19.30;94.00;;;;;;4988524;28;20529;-73
2023/08/08 08:23:46;;;;;;;11.97;5.07;;;19.40;94.10;;;;;;4970747;28;21003;-73
2023/08/08 08:26:14;;;;;;;6.50;5.23;;;19.40;94.00;;;;;;4986897;28;20469;-74
2023/08/08 08:28:40;;;;;;;7.90;4.53;;;19.40;94.10;;;;;;4970310;28;21248;-74
2023/08/08 08:31:11;;;;;;;5.97;4.60;;;19.40;94.10;;;;;;4971405;28;20453;-74
2023/08/08 08:33:42;;;;;;;7.63;4.67;;;19.40;94.10;;;;;;4954781;28;20421;-73
2023/08/08 08:36:07;;;;;;;7.90;4.90;;;19.40;94.10;;;;;;4988099;28;20485;-73
2023/08/08 08:38:36;;;;;;;6.20;4.97;;;19.40;94.10;;;;;;4987772;28;20441;-73
2023/08/08 08:41:03;;;;;;;8.87;5.60;;;19.40;94.10;;;;;;4970356;28;20503;-74
2023/08/08 08:43:31;;;;;;;6.23;4.57;;;19.40;94.20;;;;;;4970984;28;20442;-73
2023/08/08 08:46:00;;;;;;;8.73;5.10;;;19.40;94.20;;;;;;4988643;28;20421;-74
2023/08/08 08:48:26;;;;;;;8.30;4.83;;;19.40;94.20;;;;;;4988034;28;20548;-73
2023/08/08 08:50:53;;;;;;;4.70;4.27;;;19.40;94.20;;;;;;4987574;28;20442;-73
2023/08/08 08:53:19;;;;;;;5.17;4.10;;;19.40;94.20;;;;;;4970255;28;20442;-73
2023/08/08 08:55:48;;;;;;;8.90;4.73;;;19.40;94.20;;;;;;4970239;28;20442;-73
2023/08/08 08:58:17;;;;;;;7.40;4.80;;;19.40;94.30;;;;;;4987777;28;20460;-74
2023/08/08 09:00:47;;;;;;;4.97;4.40;;;19.40;94.30;;;;;;4970354;28;20481;-73
2023/08/08 09:03:16;;;;;;;6.77;4.50;;;19.50;94.20;;;;;;4987491;28;20423;-73
2023/08/08 09:05:43;;;;;;;5.87;4.50;;;19.50;94.30;;;;;;4970314;28;20445;-73
2023/08/08 09:08:11;;;;;;;4.67;4.37;;;19.50;94.30;;;;;;4969691;28;20476;-73
2023/08/08 09:10:39;;;;;;;7.90;4.63;;;19.50;94.30;;;;;;4987450;28;20440;-73
2023/08/08 09:13:05;;;;;;;8.13;4.87;;;19.50;94.20;;;;;;4969567;28;20441;-73
2023/08/08 09:15:34;;;;;;;6.87;5.27;;;19.50;94.20;;;;;;4986153;28;20427;-73
2023/08/08 09:18:05;;;;;;;8.57;4.97;;;19.50;94.30;;;;;;4969731;28;20461;-73
2023/08/08 09:20:32;;;;;;;4.70;4.17;;;19.60;94.40;;;;;;4969526;28;20929;-73
2023/08/08 09:22:58;;;;;;;6.10;4.87;;;19.60;94.30;;;;;;4969641;28;20469;-73
2023/08/08 09:25:25;;;;;;;6.43;3.97;;;19.60;94.50;;;;;;4969304;28;20523;-73
2023/08/08 09:27:55;;;;;;;6.67;5.17;;;19.60;94.50;;;;;;4969075;28;20496;-72
2023/08/08 09:30:21;;;;;;;7.73;4.80;;;19.60;94.40;;;;;;4953542;28;20511;-73
2023/08/08 09:32:48;;;;;;;7.90;4.67;;;19.60;94.30;;;;;;4970235;28;20402;-73
2023/08/08 09:35:14;;;;;;;6.20;5.30;;;19.60;94.40;;;;;;4987196;28;20407;-73
2023/08/08 09:37:41;;;;;;;7.10;4.70;;;19.60;94.50;;;;;;4969710;28;20443;-73
2023/08/08 09:40:08;;;;;;;4.50;4.10;;;19.70;94.50;;;;;;4970083;28;20450;-73
2023/08/08 09:42:35;;;;;;;6.53;4.67;;;19.70;94.50;;;;;;4969513;28;20422;-73
2023/08/08 09:45:02;;;;;;;6.03;4.80;;;19.70;94.50;;;;;;4968931;28;20491;-74
2023/08/08 09:47:31;;;;;;;7.40;4.93;;;19.70;94.40;;;;;;4969812;28;20456;-73
2023/08/08 09:50:00;;;;;;;7.57;4.07;;;19.70;94.50;;;;;;4969050;28;20435;-73
2023/08/08 09:52:32;;;;;;;5.10;4.60;;;19.70;94.40;;;;;;4987032;28;20462;-74
2023/08/08 09:54:59;;;;;;;4.70;4.20;;;19.70;94.70;;;;;;4969413;28;20449;-74
2023/08/08 09:57:29;;;;;;;4.90;4.33;;;19.70;94.30;;;;;;4969149;28;20464;-73
2023/08/08 09:59:57;;;;;;;5.50;4.47;;;19.70;94.20;;;;;;4969409;28;20518;-74
2023/08/08 10:02:29;;;;;;;4.80;4.30;;;19.80;94.20;;;;;;4937555;28;20428;-74
2023/08/08 10:04:58;;;;;;;8.77;4.73;;;19.80;94.00;;;;;;4969427;28;20438;-73
2023/08/08 10:07:26;;;;;;;7.30;3.97;;;19.80;93.90;;;;;;4953474;28;20474;-73
2023/08/08 10:09:54;;;;;;;5.70;4.53;;;19.80;93.90;;;;;;4987625;28;20441;-72
2023/08/08 10:12:22;;;;;;;5.70;4.50;;;19.80;93.80;;;;;;4970221;28;20454;-73
2023/08/08 10:14:54;;;;;;;4.40;4.00;;;19.80;93.80;;;;;;4969177;28;20460;-73
2023/08/08 10:17:20;;;;;;;4.23;3.83;;;19.80;93.80;;;;;;4952979;28;21135;-73
2023/08/08 10:19:57;;;;;;;4.50;4.07;;;19.80;93.70;;;;;;4969846;28;20441;-73
2023/08/08 10:22:24;;;;;;;6.20;3.80;;;19.80;93.70;;;;;;4972745;28;21033;-74
2023/08/08 10:24:54;;;;;;;5.33;4.07;;;19.90;93.70;;;;;;4972192;28;20430;-73
2023/08/08 10:27:37;;;;;;;4.37;3.80;;;19.90;93.60;;;;;;4972350;28;20521;-73
2023/08/08 10:30:12;;;;;;;5.97;4.90;;;19.90;93.50;;;;;;4972452;28;20580;-73
2023/08/08 10:32:46;;;;;;;4.43;4.00;;;19.90;93.50;;;;;;4972495;28;20433;-73
2023/08/08 10:35:17;;;;;;;4.97;4.40;;;19.80;93.40;;;;;;4970158;28;20569;-73
2023/08/08 10:37:53;;;;;;;4.73;4.20;;;19.90;93.50;;;;;;4953722;28;21263;-74
2023/08/08 10:40:21;;;;;;;6.57;4.47;;;19.90;93.50;;;;;;4970324;28;20446;-74
2023/08/08 10:42:47;;;;;;;5.50;4.07;;;19.90;93.40;;;;;;4969373;28;20435;-74
2023/08/08 10:45:16;;;;;;;4.67;3.90;;;19.90;93.40;;;;;;4969310;28;20403;-73
2023/08/08 10:47:45;;;;;;;4.53;4.00;;;19.90;93.30;;;;;;4969192;28;20918;-73
2023/08/08 10:50:16;;;;;;;6.00;4.40;;;19.90;93.20;;;;;;4970185;28;20449;-73
2023/08/08 10:52:53;;;;;;;4.73;3.80;;;19.90;93.20;;;;;;4970039;28;20415;-73
2023/08/08 10:55:20;;;;;;;9.10;4.23;;;19.90;93.10;;;;;;4968716;28;20466;-74
2023/08/08 10:57:56;;;;;;;4.07;3.70;;;19.90;92.90;;;;;;4962255;28;20493;-73
2023/08/08 11:00:27;;;;;;;7.70;3.73;;;19.90;92.90;;;;;;4989432;28;20960;-73
2023/08/08 11:02:54;;;;;;;8.97;4.53;;;20.00;92.90;;;;;;4971983;28;20426;-73
2023/08/08 11:05:22;;;;;;;5.10;3.63;;;20.00;92.90;;;;;;4972122;28;20488;-73
2023/08/08 11:07:50;;;;;;;4.27;3.80;;;20.00;93.10;;;;;;4955967;28;20483;-73
2023/08/08 11:10:19;;;;;;;4.60;3.77;;;20.00;93.20;;;;;;4989729;28;20439;-74
2023/08/08 11:13:05;;;;;;;7.90;4.33;;;20.00;93.20;;;;;;4988978;28;20405;-73
2023/08/08 11:15:38;;;;;;;4.53;4.10;;;20.00;93.30;;;;;;4971388;28;21019;-73
2023/08/08 11:18:04;;;;;;;5.50;3.80;;;20.00;93.30;;;;;;4971623;28;20954;-73
2023/08/08 11:20:35;;;;;;;5.97;4.03;;;20.00;93.30;;;;;;4971778;28;20453;-72
2023/08/08 11:23:02;;;;;;;4.97;4.30;;;20.00;93.40;;;;;;4971584;28;20970;-73
2023/08/08 11:25:29;;;;;;;4.73;4.23;;;20.00;93.40;;;;;;4985014;28;20607;-73
2023/08/08 11:27:56;;;;;;;6.10;4.13;;;20.00;93.40;;;;;;4987688;28;20461;-73
2023/08/08 11:30:27;;;;;;;4.63;4.10;;;20.00;93.40;;;;;;4955551;28;20789;-73
2023/08/08 11:32:57;;;;;;;5.40;3.90;;;20.10;93.50;;;;;;4989350;28;20413;-73
2023/08/08 11:35:24;;;;;;;4.07;3.67;;;20.10;93.50;;;;;;4955494;28;20485;-73
2023/08/08 11:37:54;;;;;;;6.27;4.10;;;20.10;93.50;;;;;;4939720;28;20438;-74
2023/08/08 11:40:24;;;;;;;5.63;4.73;;;20.10;93.50;;;;;;4987326;28;20462;-74
2023/08/08 11:42:54;;;;;;;4.97;4.57;;;20.10;93.50;;;;;;4988852;28;20952;-73
2023/08/08 11:45:20;;;;;;;5.50;3.87;;;20.10;93.40;;;;;;4971539;28;20419;-73
2023/08/08 11:47:55;;;;;;;4.80;3.93;;;20.10;93.30;;;;;;4954840;28;20474;-73
2023/08/08 11:50:25;;;;;;;4.83;4.03;;;20.20;93.30;;;;;;4989049;28;20978;-73
2023/08/08 11:52:55;;;;;;;5.23;4.67;;;20.20;93.20;;;;;;4954870;28;20419;-73
2023/08/08 11:55:27;;;;;;;6.53;4.97;;;20.20;93.20;;;;;;4971140;28;20518;-73
2023/08/08 11:57:59;;;;;;;11.37;4.90;;;20.20;93.10;;;;;;4988985;28;20420;-73
2023/08/08 12:00:33;;;;;;;4.10;3.80;;;20.20;93.10;;;;;;4971026;28;20446;-73
2023/08/08 12:03:04;;;;;;;4.53;3.87;;;20.20;93.10;;;;;;4971058;28;20428;-73
2023/08/08 12:05:35;;;;;;;4.93;4.43;;;20.20;93.00;;;;;;4954966;28;20411;-73
2023/08/08 12:08:06;;;;;;;4.40;3.90;;;20.20;93.00;;;;;;4971056;28;20489;-73
2023/08/08 12:10:34;;;;;;;6.53;4.03;;;20.30;93.10;;;;;;4970914;28;20435;-74
2023/08/08 12:13:03;;;;;;;5.77;4.33;;;20.20;93.00;;;;;;4955408;28;20398;-73
2023/08/08 12:15:34;;;;;;;5.03;4.47;;;20.30;93.10;;;;;;4970998;28;20455;-73
2023/08/08 12:18:03;;;;;;;4.70;4.03;;;20.30;93.10;;;;;;4971105;28;20456;-74
2023/08/08 12:20:31;;;;;;;4.63;4.23;;;20.30;93.10;;;;;;4971006;28;20449;-73
2023/08/08 12:22:59;;;;;;;8.07;4.93;;;20.30;93.10;;;;;;4971052;28;20488;-74
2023/08/08 12:25:27;;;;;;;5.90;4.67;;;20.30;93.10;;;;;;4970553;28;20504;-74
2023/08/08 12:27:54;;;;;;;6.40;4.37;;;20.30;93.10;;;;;;4987745;28;20818;-74
2023/08/08 12:30:22;;;;;;;5.00;4.53;;;20.30;93.10;;;;;;4939792;28;20455;-73
2023/08/08 12:32:50;;;;;;;4.93;4.43;;;20.30;93.20;;;;;;4988185;28;20934;-73
2023/08/08 12:35:21;;;;;;;4.87;4.47;;;20.30;93.30;;;;;;4970708;28;20920;-73
2023/08/08 12:37:49;;;;;;;5.93;4.37;;;20.30;93.30;;;;;;4987384;28;20921;-73
2023/08/08 12:40:16;;;;;;;4.80;4.37;;;20.30;93.30;;;;;;4971005;28;20438;-73
2023/08/08 12:42:42;;;;;;;6.00;4.23;;;20.30;93.40;;;;;;4969960;28;20880;-74
2023/08/08 12:45:09;;;;;;;4.20;3.80;;;20.40;93.50;;;;;;4970482;28;20403;-73
2023/08/08 12:47:37;;;;;;;4.50;3.80;;;20.40;93.50;;;;;;4954364;28;20470;-74
2023/08/08 12:50:12;;;;;;;4.93;4.17;;;20.40;93.50;;;;;;4970632;28;20797;-73
2023/08/08 12:52:43;;;;;;;7.80;3.87;;;20.40;93.50;;;;;;4970589;28;20462;-73